Time;durP1;ratioP1;P1;durP2;ratioP2;P2;SDS_P1;SDS_P2;PMS_P1;PMS_P2;Temp;Humidity;BMP_temperature;BMP_pressure;BME280_temperature;BME280_humidity;BME280_pressure;Samples;Min_cycle;Max_cycle;Signal;HPM_P1;HPM_P2
2023/07/21 00:01:56;;;;;;;3.73;2.90;;;;;;;;;;5155715;27;20279;-79
2023/07/21 00:04:24;;;;;;;3.80;2.80;;;;;;;;;;5155673;27;20196;-78
2023/07/21 00:06:51;;;;;;;6.57;3.40;;;;;;;;;;5146372;27;20217;-78
2023/07/21 00:09:19;;;;;;;5.03;3.27;;;;;;;;;;5133612;27;20670;-79
2023/07/21 00:11:48;;;;;;;3.63;3.00;;;;;;;;;;5134416;27;20801;-78
2023/07/21 00:14:16;;;;;;;4.77;3.27;;;;;;;;;;5134903;27;20243;-79
2023/07/21 00:16:43;;;;;;;5.07;3.50;;;;;;;;;;5134268;27;20201;-79
2023/07/21 00:19:10;;;;;;;3.50;3.00;;;;;;;;;;5134829;27;20684;-78
2023/07/21 00:21:37;;;;;;;7.73;3.50;;;;;;;;;;5133800;27;21138;-78
2023/07/21 00:24:06;;;;;;;7.23;3.70;;;;;;;;;;5152935;27;20303;-79
2023/07/21 00:26:35;;;;;;;6.47;3.60;;;;;;;;;;5155200;27;20192;-79
2023/07/21 00:29:04;;;;;;;5.47;3.40;;;;;;;;;;5155414;27;20219;-79
2023/07/21 00:31:31;;;;;;;6.93;3.70;;;;;;;;;;5154833;27;20188;-78
2023/07/21 00:33:59;;;;;;;7.17;3.77;;;;;;;;;;5154774;27;20657;-79
2023/07/21 00:36:26;;;;;;;5.63;3.70;;;;;;;;;;5154506;27;20189;-78
2023/07/21 00:38:53;;;;;;;5.23;3.73;;;;;;;;;;5154659;27;20640;-79
2023/07/21 00:41:22;;;;;;;5.83;3.63;;;;;;;;;;5154444;27;20633;-79
2023/07/21 00:43:50;;;;;;;5.30;3.80;;;;;;;;;;5154337;27;20196;-79
2023/07/21 00:46:18;;;;;;;5.50;4.10;;;;;;;;;;5146709;27;20228;-78
2023/07/21 00:48:46;;;;;;;5.13;3.63;;;;;;;;;;5133780;27;20312;-79
2023/07/21 00:51:13;;;;;;;4.93;3.93;;;;;;;;;;5133880;27;20316;-79
2023/07/21 00:53:40;;;;;;;4.57;3.97;;;;;;;;;;5133586;27;20599;-79
2023/07/21 00:56:08;;;;;;;5.60;4.53;;;;;;;;;;5133498;27;20240;-79
2023/07/21 00:58:36;;;;;;;7.30;4.40;;;;;;;;;;5134187;27;20204;-79
2023/07/21 01:01:04;;;;;;;6.83;4.73;;;;;;;;;;5133520;27;20193;-79
2023/07/21 01:03:35;;;;;;;5.13;4.37;;;;;;;;;;5133183;27;20199;-79
2023/07/21 01:06:03;;;;;;;7.30;5.07;;;;;;;;;;5133523;27;20197;-79
2023/07/21 01:08:30;;;;;;;6.23;4.80;;;;;;;;;;5133470;27;20260;-78
2023/07/21 01:10:57;;;;;;;7.83;4.77;;;;;;;;;;5133248;27;20196;-79
2023/07/21 01:13:26;;;;;;;7.33;4.50;;;;;;;;;;5133201;27;20197;-80
2023/07/21 01:15:53;;;;;;;7.93;5.13;;;;;;;;;;5133312;27;20201;-79
2023/07/21 01:18:21;;;;;;;7.57;5.03;;;;;;;;;;5133180;27;20193;-79
2023/07/21 01:20:50;;;;;;;7.20;4.93;;;;;;;;;;5132719;27;20228;-79
2023/07/21 01:23:23;;;;;;;8.33;5.33;;;;;;;;;;5141931;27;20217;-78
2023/07/21 01:25:52;;;;;;;6.73;5.33;;;;;;;;;;5153890;27;20287;-78
2023/07/21 01:28:20;;;;;;;7.10;5.30;;;;;;;;;;5153736;27;20314;-79
2023/07/21 01:30:49;;;;;;;8.03;5.93;;;;;;;;;;5153800;27;20668;-79
2023/07/21 01:33:18;;;;;;;6.70;5.50;;;;;;;;;;5127419;27;20197;-79
2023/07/21 01:35:48;;;;;;;7.23;5.60;;;;;;;;;;5112445;27;20259;-78
2023/07/21 01:38:17;;;;;;;6.67;5.47;;;;;;;;;;5112323;28;20200;-79
2023/07/21 01:40:44;;;;;;;7.87;5.60;;;;;;;;;;5112111;28;20306;-79
2023/07/21 01:43:14;;;;;;;7.13;5.90;;;;;;;;;;5112150;28;20285;-79
2023/07/21 01:45:42;;;;;;;8.63;6.27;;;;;;;;;;5112708;27;20211;-79
2023/07/21 01:48:10;;;;;;;7.80;5.83;;;;;;;;;;5153552;27;20235;-79
2023/07/21 01:50:39;;;;;;;7.97;5.63;;;;;;;;;;5152816;27;20759;-79
2023/07/21 01:53:08;;;;;;;8.87;6.20;;;;;;;;;;5153760;27;20228;-78
2023/07/21 01:55:39;;;;;;;7.57;5.87;;;;;;;;;;5153231;27;20287;-79
2023/07/21 01:58:08;;;;;;;8.87;6.07;;;;;;;;;;5153582;27;20292;-79
2023/07/21 02:00:37;;;;;;;8.33;6.17;;;;;;;;;;5153466;27;20648;-78
2023/07/21 02:03:05;;;;;;;8.43;6.47;;;;;;;;;;5153277;27;20691;-79
2023/07/21 02:05:32;;;;;;;9.73;6.20;;;;;;;;;;5153336;27;20283;-77
2023/07/21 02:07:59;;;;;;;9.20;6.50;;;;;;;;;;5153049;27;20319;-78
2023/07/21 02:10:26;;;;;;;7.97;6.63;;;;;;;;;;5153086;27;20941;-79
2023/07/21 02:12:53;;;;;;;9.40;6.87;;;;;;;;;;5153379;27;20220;-79
2023/07/21 02:15:20;;;;;;;9.83;6.97;;;;;;;;;;5151693;27;20194;-78
2023/07/21 02:17:49;;;;;;;10.43;7.23;;;;;;;;;;5132639;27;20225;-79
2023/07/21 02:20:16;;;;;;;11.23;7.17;;;;;;;;;;5132140;27;20669;-79
2023/07/21 02:22:43;;;;;;;10.60;7.30;;;;;;;;;;5132104;27;20736;-79
2023/07/21 02:25:11;;;;;;;12.17;7.57;;;;;;;;;;5136426;27;20204;-78
2023/07/21 02:27:38;;;;;;;8.60;6.83;;;;;;;;;;5132707;27;20225;-79
2023/07/21 02:30:06;;;;;;;12.00;7.20;;;;;;;;;;5137630;27;20231;-79
2023/07/21 02:32:33;;;;;;;12.57;6.70;;;;;;;;;;5153009;27;20195;-79
2023/07/21 02:35:01;;;;;;;11.47;6.90;;;;;;;;;;5152535;27;20239;-79
2023/07/21 02:37:29;;;;;;;10.13;6.70;;;;;;;;;;5152557;27;20759;-80
2023/07/21 02:39:56;;;;;;;10.20;6.60;;;;;;;;;;5152972;27;20192;-79
2023/07/21 02:42:23;;;;;;;11.47;6.73;;;;;;;;;;5149134;27;20217;-78
2023/07/21 02:44:50;;;;;;;9.33;6.27;;;;;;;;;;5132089;28;20193;-79
2023/07/21 02:47:18;;;;;;;10.07;6.60;;;;;;;;;;5132867;27;20235;-78
2023/07/21 02:49:45;;;;;;;10.77;6.60;;;;;;;;;;5131807;28;20221;-79
2023/07/21 02:52:14;;;;;;;9.67;6.83;;;;;;;;;;5131782;28;20320;-78
2023/07/21 02:54:41;;;;;;;9.17;6.43;;;;;;;;;;5131862;28;20292;-80
2023/07/21 02:57:08;;;;;;;8.80;6.90;;;;;;;;;;5132152;28;20282;-78
2023/07/21 02:59:36;;;;;;;11.03;6.80;;;;;;;;;;5131821;28;20231;-79
2023/07/21 03:02:05;;;;;;;9.67;6.43;;;;;;;;;;5131508;28;20718;-79
2023/07/21 03:04:34;;;;;;;8.63;6.53;;;;;;;;;;5131579;28;20201;-79
2023/07/21 03:07:01;;;;;;;11.37;7.03;;;;;;;;;;5132069;28;20193;-79
2023/07/21 03:09:30;;;;;;;11.00;7.03;;;;;;;;;;5132899;27;20231;-79
2023/07/21 03:11:59;;;;;;;11.00;6.90;;;;;;;;;;5136113;27;20276;-78
2023/07/21 03:14:27;;;;;;;9.73;6.83;;;;;;;;;;5135853;27;20190;-79
2023/07/21 03:16:54;;;;;;;10.83;7.13;;;;;;;;;;5135039;27;20292;-78
2023/07/21 03:19:21;;;;;;;9.47;6.43;;;;;;;;;;5143187;27;20200;-79
2023/07/21 03:21:49;;;;;;;8.97;6.37;;;;;;;;;;5156568;27;20256;-79
2023/07/21 03:24:17;;;;;;;7.73;6.33;;;;;;;;;;5156599;27;20208;-79
2023/07/21 03:26:45;;;;;;;9.07;7.03;;;;;;;;;;5156415;27;20317;-78
2023/07/21 03:29:12;;;;;;;11.50;6.83;;;;;;;;;;5156122;27;20783;-79
2023/07/21 03:31:40;;;;;;;7.90;6.47;;;;;;;;;;5150735;27;20582;-78
2023/07/21 03:34:08;;;;;;;10.60;6.77;;;;;;;;;;5135226;27;20619;-78
2023/07/21 03:36:35;;;;;;;11.03;6.67;;;;;;;;;;5135597;27;20276;-78
2023/07/21 03:39:01;;;;;;;9.80;6.40;;;;;;;;;;5135194;27;20231;-77
2023/07/21 03:41:28;;;;;;;8.77;6.27;;;;;;;;;;5135010;27;20197;-78
2023/07/21 03:43:58;;;;;;;8.57;6.53;;;;;;;;;;5135139;27;20296;-79
2023/07/21 03:46:25;;;;;;;9.27;6.27;;;;;;;;;;5135407;27;20199;-79
2023/07/21 03:48:52;;;;;;;11.20;6.20;;;;;;;;;;5156019;27;20311;-78
2023/07/21 03:51:19;;;;;;;9.90;6.33;;;;;;;;;;5155685;27;20315;-78
2023/07/21 03:53:46;;;;;;;10.20;6.43;;;;;;;;;;5155941;27;20220;-78
2023/07/21 03:56:14;;;;;;;9.13;6.40;;;;;;;;;;5156087;27;20193;-79
2023/07/21 03:58:42;;;;;;;9.90;6.60;;;;;;;;;;5155385;27;20283;-79
2023/07/21 04:01:11;;;;;;;11.23;6.60;;;;;;;;;;5155442;27;20220;-78
2023/07/21 04:03:38;;;;;;;10.93;7.20;;;;;;;;;;5155720;27;20249;-78
2023/07/21 04:06:07;;;;;;;9.37;6.47;;;;;;;;;;5155610;27;20279;-78
2023/07/21 04:08:35;;;;;;;10.00;6.80;;;;;;;;;;5147393;27;20224;-79
2023/07/21 04:11:02;;;;;;;9.37;6.47;;;;;;;;;;5143146;27;20200;-77
2023/07/21 04:13:29;;;;;;;10.03;6.47;;;;;;;;;;5155454;27;20528;-78
2023/07/21 04:15:56;;;;;;;11.07;6.83;;;;;;;;;;5148611;27;20205;-78
2023/07/21 04:18:25;;;;;;;8.77;6.60;;;;;;;;;;5134364;27;20193;-79
2023/07/21 04:20:52;;;;;;;9.03;6.63;;;;;;;;;;5133473;27;20189;-78
2023/07/21 04:23:19;;;;;;;8.10;6.70;;;;;;;;;;5134245;27;20288;-77
2023/07/21 04:25:47;;;;;;;8.33;6.93;;;;;;;;;;5136719;27;20280;-78
2023/07/21 04:28:14;;;;;;;9.80;6.70;;;;;;;;;;5155260;27;20704;-79
2023/07/21 04:30:42;;;;;;;8.33;6.23;;;;;;;;;;5154752;27;20275;-77
2023/07/21 04:33:09;;;;;;;8.97;6.90;;;;;;;;;;5155074;27;20216;-78
2023/07/21 04:35:38;;;;;;;9.80;6.73;;;;;;;;;;5155037;27;20200;-79
2023/07/21 04:38:05;;;;;;;11.63;7.07;;;;;;;;;;5155128;27;20192;-78
2023/07/21 04:40:32;;;;;;;9.97;7.07;;;;;;;;;;5154942;27;20287;-78
2023/07/21 04:42:59;;;;;;;11.23;6.93;;;;;;;;;;5154902;27;20196;-78
2023/07/21 04:45:27;;;;;;;9.37;7.00;;;;;;;;;;5154482;27;20228;-78
2023/07/21 04:47:54;;;;;;;8.87;6.63;;;;;;;;;;5143720;27;20189;-77
2023/07/21 04:50:21;;;;;;;8.50;6.60;;;;;;;;;;5134179;27;20239;-78
2023/07/21 04:52:50;;;;;;;9.13;7.27;;;;;;;;;;5133388;27;20319;-78
2023/07/21 04:55:18;;;;;;;10.40;7.40;;;;;;;;;;5133786;27;20645;-78
2023/07/21 04:57:45;;;;;;;9.90;7.50;;;;;;;;;;5133761;27;20193;-79
2023/07/21 05:00:14;;;;;;;9.60;7.27;;;;;;;;;;5133220;27;20292;-78
2023/07/21 05:02:41;;;;;;;11.23;7.53;;;;;;;;;;5139437;27;20196;-78
2023/07/21 05:05:09;;;;;;;8.97;6.97;;;;;;;;;;5154567;27;20282;-78
2023/07/21 05:07:36;;;;;;;11.83;7.47;;;;;;;;;;5154379;27;20299;-78
2023/07/21 05:10:05;;;;;;;13.17;7.67;;;;;;;;;;5154273;27;20230;-78
2023/07/21 05:12:32;;;;;;;10.67;7.60;;;;;;;;;;5154075;27;20188;-79
2023/07/21 05:14:59;;;;;;;10.27;7.63;;;;;;;;;;5153356;27;20224;-79
2023/07/21 05:17:27;;;;;;;11.30;8.20;;;;;;;;;;5134519;27;20240;-78
2023/07/21 05:19:54;;;;;;;14.40;8.73;;;;;;;;;;5132937;27;20197;-79
2023/07/21 05:22:21;;;;;;;13.47;7.67;;;;;;;;;;5133003;27;20615;-78
2023/07/21 05:24:48;;;;;;;11.73;8.00;;;;;;;;;;5133200;27;20200;-78
2023/07/21 05:27:18;;;;;;;10.63;8.80;;;;;;;;;;5132876;27;20284;-78
2023/07/21 05:29:46;;;;;;;11.70;7.83;;;;;;;;;;5133059;27;20243;-77
2023/07/21 05:32:15;;;;;;;13.23;7.90;;;;;;;;;;5132492;27;20236;-77
2023/07/21 05:34:42;;;;;;;13.63;8.27;;;;;;;;;;5133168;27;20197;-77
2023/07/21 05:37:11;;;;;;;12.67;8.17;;;;;;;;;;5112358;28;20769;-76
2023/07/21 05:39:39;;;;;;;13.30;8.23;;;;;;;;;;5112427;28;20661;-78
2023/07/21 05:42:07;;;;;;;9.83;8.00;;;;;;;;;;5115144;27;20197;-77
2023/07/21 05:44:37;;;;;;;10.70;7.27;;;;;;;;;;5133735;27;20227;-77
2023/07/21 05:47:05;;;;;;;9.67;7.50;;;;;;;;;;5132799;27;20193;-79
2023/07/21 05:49:33;;;;;;;11.03;7.40;;;;;;;;;;5140623;27;20223;-76
2023/07/21 05:52:00;;;;;;;11.02;7.43;;;;;;;;;;5134272;27;20225;-77
2023/07/21 05:54:27;;;;;;;10.15;7.07;;;;;;;;;;5132750;27;20242;-77
2023/07/21 05:56:56;;;;;;;8.35;7.05;;;;;;;;;;5131806;27;20196;-77
2023/07/21 05:59:23;;;;;;;8.40;6.97;;;;;;;;;;5132652;27;20280;-77
2023/07/21 06:01:53;;;;;;;9.68;6.85;;;;;;;;;;5133158;27;20284;-77
2023/07/21 06:04:20;;;;;;;9.27;6.68;;;;;;;;;;5132750;27;20855;-77
2023/07/21 06:06:47;;;;;;;10.43;7.53;;;;;;;;;;5132620;27;20199;-78
2023/07/21 06:09:15;;;;;;;8.85;6.50;;;;;;;;;;5132349;27;20323;-78
2023/07/21 06:11:42;;;;;;;8.20;6.85;;;;;;;;;;5132375;27;20189;-77
2023/07/21 06:14:09;;;;;;;11.10;6.93;;;;;;;;;;5132627;27;20262;-77
2023/07/21 06:16:36;;;;;;;10.38;6.78;;;;;;;;;;5132045;27;20197;-78
2023/07/21 06:19:05;;;;;;;11.23;6.50;;;;;;;;;;5132794;27;20257;-78
2023/07/21 06:21:32;;;;;;;7.53;5.78;;;;;;;;;;5132347;27;20192;-78
2023/07/21 06:23:59;;;;;;;7.45;6.43;;;;;;;;;;5132301;27;20224;-78
2023/07/21 06:26:27;;;;;;;10.57;6.40;;;;;;;;;;5132171;27;20193;-76
2023/07/21 06:28:54;;;;;;;8.50;6.07;;;;;;;;;;5132057;27;20305;-78
2023/07/21 06:31:22;;;;;;;8.32;6.13;;;;;;;;;;5131912;27;20235;-78
2023/07/21 06:33:49;;;;;;;8.88;6.00;;;;;;;;;;5132055;27;20696;-78
2023/07/21 06:36:17;;;;;;;9.10;6.15;;;;;;;;;;5147733;27;20223;-78
2023/07/21 06:38:45;;;;;;;6.43;5.82;;;;;;;;;;5151875;27;20204;-78
2023/07/21 06:41:12;;;;;;;8.70;6.07;;;;;;;;;;5125493;27;20284;-78
2023/07/21 06:43:39;;;;;;;7.88;6.05;;;;;;;;;;5131978;27;20284;-78
2023/07/21 06:46:07;;;;;;;6.18;5.47;;;;;;;;;;5121428;27;20228;-77
2023/07/21 06:48:34;;;;;;;7.10;5.88;;;;;;;;;;5136086;27;20197;-78
2023/07/21 06:51:01;;;;;;;8.85;5.82;;;;;;;;;;5135711;27;20260;-77
2023/07/21 06:53:30;;;;;;;10.70;6.35;;;;;;;;;;5135898;27;20634;-79
2023/07/21 06:55:57;;;;;;;8.27;6.13;;;;;;;;;;5139205;27;20724;-78
2023/07/21 06:58:24;;;;;;;8.45;6.65;;;;;;;;;;5136060;27;20280;-79
2023/07/21 07:00:52;;;;;;;7.70;6.07;;;;;;;;;;5131643;27;20209;-80
2023/07/21 07:03:19;;;;;;;8.68;6.38;;;;;;;;;;5135380;27;20193;-79
2023/07/21 07:05:47;;;;;;;6.63;5.80;;;;;;;;;;5136087;27;20283;-79
2023/07/21 07:08:15;;;;;;;6.78;6.10;;;;;;;;;;5135870;27;20193;-80
2023/07/21 07:10:48;;;;;;;7.65;5.95;;;;;;;;;;5135337;27;20225;-80
2023/07/21 07:13:15;;;;;;;8.40;6.40;;;;;;;;;;5135578;27;20203;-81
2023/07/21 07:15:42;;;;;;;10.00;6.28;;;;;;;;;;5135654;27;20668;-80
2023/07/21 07:18:11;;;;;;;8.45;6.07;;;;;;;;;;5135034;27;20650;-80
2023/07/21 07:20:40;;;;;;;6.57;5.35;;;;;;;;;;5136091;27;20197;-80
2023/07/21 07:23:07;;;;;;;8.05;6.07;;;;;;;;;;5136121;27;20193;-80
2023/07/21 07:25:35;;;;;;;8.88;5.90;;;;;;;;;;5136020;27;20219;-81
2023/07/21 07:28:03;;;;;;;7.07;4.95;;;;;;;;;;5135815;27;20221;-80
2023/07/21 07:30:31;;;;;;;8.20;5.65;;;;;;;;;;5135774;27;20225;-80
2023/07/21 07:32:58;;;;;;;6.65;5.10;;;;;;;;;;5135588;27;20208;-80
2023/07/21 07:35:25;;;;;;;8.40;5.20;;;;;;;;;;5135787;27;20237;-80
2023/07/21 07:37:52;;;;;;;6.45;5.53;;;;;;;;;;5135188;27;20232;-81
2023/07/21 07:40:20;;;;;;;6.97;4.93;;;;;;;;;;5135541;27;20201;-80
2023/07/21 07:42:47;;;;;;;6.47;5.00;;;;;;;;;;5135655;27;20291;-81
2023/07/21 07:45:15;;;;;;;6.88;4.55;;;;;;;;;;5135879;27;20279;-81
2023/07/21 07:47:44;;;;;;;7.55;5.03;;;;;;;;;;5135363;27;20295;-81
2023/07/21 07:50:11;;;;;;;7.07;4.97;;;;;;;;;;5135209;27;20225;-81
2023/07/21 07:52:39;;;;;;;7.88;4.80;;;;;;;;;;5134724;27;20720;-80
2023/07/21 07:55:07;;;;;;;7.53;5.05;;;;;;;;;;5135281;27;20590;-81
2023/07/21 07:57:34;;;;;;;6.75;4.68;;;;;;;;;;5135118;27;20228;-80
2023/07/21 08:00:04;;;;;;;7.10;4.80;;;;;;;;;;5134904;27;20301;-80
2023/07/21 08:02:33;;;;;;;7.82;4.88;;;;;;;;;;5135038;27;20218;-81
2023/07/21 08:05:00;;;;;;;5.30;4.03;;;;;;;;;;5135375;27;20193;-81
2023/07/21 08:07:27;;;;;;;9.43;5.43;;;;;;;;;;5134804;27;20224;-82
2023/07/21 08:09:54;;;;;;;9.93;4.93;;;;;;;;;;5135008;27;20320;-81
2023/07/21 08:12:21;;;;;;;8.10;4.60;;;;;;;;;;5134949;27;20250;-80
2023/07/21 08:14:48;;;;;;;7.60;5.03;;;;;;;;;;5134843;27;20285;-80
2023/07/21 08:17:16;;;;;;;10.77;5.05;;;;;;;;;;5134498;27;20287;-80
2023/07/21 08:19:44;;;;;;;5.75;4.50;;;;;;;;;;5134551;27;20665;-82
2023/07/21 08:22:11;;;;;;;6.32;4.70;;;;;;;;;;5134072;27;20193;-81
2023/07/21 08:24:39;;;;;;;6.07;4.15;;;;;;;;;;5134431;27;20197;-81
2023/07/21 08:27:07;;;;;;;6.60;4.10;;;;;;;;;;5134535;27;20221;-81
2023/07/21 08:29:35;;;;;;;8.27;4.55;;;;;;;;;;5134508;27;20276;-80
2023/07/21 08:32:02;;;;;;;6.78;4.50;;;;;;;;;;5134669;27;20284;-81
2023/07/21 08:34:29;;;;;;;7.93;4.25;;;;;;;;;;5134829;27;20291;-81
2023/07/21 08:36:58;;;;;;;7.32;4.38;;;;;;;;;;5133987;27;20292;-81
2023/07/21 08:39:25;;;;;;;6.75;4.45;;;;;;;;;;5134373;27;20288;-81
2023/07/21 08:41:52;;;;;;;6.20;4.40;;;;;;;;;;5134281;27;20262;-81
2023/07/21 08:44:22;;;;;;;7.30;4.07;;;;;;;;;;5134022;27;20221;-80
2023/07/21 08:46:49;;;;;;;7.20;4.30;;;;;;;;;;5134462;27;20203;-81
2023/07/21 08:49:18;;;;;;;9.05;3.95;;;;;;;;;;5134008;27;20292;-81
2023/07/21 08:51:45;;;;;;;8.43;4.50;;;;;;;;;;5133514;27;20229;-81
2023/07/21 08:54:13;;;;;;;5.85;4.07;;;;;;;;;;5134325;27;20220;-81
2023/07/21 08:56:40;;;;;;;6.43;3.88;;;;;;;;;;5133742;27;20692;-82
2023/07/21 08:59:08;;;;;;;5.88;3.75;;;;;;;;;;5134062;27;20220;-82
2023/07/21 09:01:35;;;;;;;9.05;4.10;;;;;;;;;;5133985;27;20284;-81
2023/07/21 09:04:02;;;;;;;4.22;3.17;;;;;;;;;;5133821;27;20193;-81
2023/07/21 09:06:35;;;;;;;3.83;3.40;;;;;;;;;;5132976;27;20271;-82
2023/07/21 09:09:02;;;;;;;3.80;3.35;;;;;;;;;;5133822;27;20197;-81
2023/07/21 09:11:36;;;;;;;5.28;3.30;;;;;;;;;;5133379;27;20278;-81
2023/07/21 09:14:03;;;;;;;4.15;3.30;;;;;;;;;;5133744;27;20249;-81
2023/07/21 09:16:34;;;;;;;4.85;3.38;;;;;;;;;;5133709;27;20197;-82
2023/07/21 09:19:01;;;;;;;5.57;3.20;;;;;;;;;;5133587;27;20197;-81
2023/07/21 09:21:28;;;;;;;4.30;2.97;;;;;;;;;;5133805;27;20201;-81
2023/07/21 09:24:02;;;;;;;4.32;3.20;;;;;;;;;;5133351;27;20220;-82
2023/07/21 09:26:31;;;;;;;7.78;3.47;;;;;;;;;;5133539;27;20194;-82
2023/07/21 09:28:58;;;;;;;3.58;2.97;;;;;;;;;;5134722;27;20232;-82
2023/07/21 09:31:29;;;;;;;4.70;3.28;;;;;;;;;;5133324;27;20228;-82
2023/07/21 09:34:05;;;;;;;5.30;3.10;;;;;;;;;;5132864;27;20204;-81
2023/07/21 09:36:32;;;;;;;5.00;2.92;;;;;;;;;;5133438;27;20641;-81
2023/07/21 09:39:02;;;;;;;6.97;3.05;;;;;;;;;;5133269;27;20232;-82
2023/07/21 09:41:32;;;;;;;5.50;3.08;;;;;;;;;;5132914;27;20292;-82
2023/07/21 09:44:00;;;;;;;5.75;2.75;;;;;;;;;;5133419;27;20292;-81
2023/07/21 09:46:27;;;;;;;4.72;3.20;;;;;;;;;;5133220;27;20193;-82
2023/07/21 09:48:54;;;;;;;3.42;2.60;;;;;;;;;;5132639;27;20293;-82
2023/07/21 09:51:22;;;;;;;3.25;2.90;;;;;;;;;;5132727;27;20323;-82
2023/07/21 09:53:52;;;;;;;3.40;2.63;;;;;;;;;;5132991;27;20197;-82
2023/07/21 09:56:20;;;;;;;4.78;2.47;;;;;;;;;;5132406;27;20714;-81
2023/07/21 09:58:53;;;;;;;3.50;2.20;;;;;;;;;;5133037;27;20288;-83
2023/07/21 10:01:21;;;;;;;4.25;2.47;;;;;;;;;;5132705;27;20189;-80
2023/07/21 10:03:49;;;;;;;3.67;2.67;;;;;;;;;;5132532;27;20236;-82
2023/07/21 10:06:16;;;;;;;4.22;2.70;;;;;;;;;;5132685;27;20280;-82
2023/07/21 10:08:45;;;;;;;2.78;2.58;;;;;;;;;;5132924;27;20199;-82
2023/07/21 10:11:13;;;;;;;3.92;3.00;;;;;;;;;;5132560;27;20746;-82
2023/07/21 10:13:44;;;;;;;4.35;2.70;;;;;;;;;;5128260;27;20227;-82
2023/07/21 10:16:13;;;;;;;4.40;2.60;;;;;;;;;;5117255;27;20193;-80
2023/07/21 10:18:55;;;;;;;5.03;2.75;;;;;;;;;;5120846;27;20279;-80
2023/07/21 10:21:22;;;;;;;3.13;2.70;;;;;;;;;;5121731;27;20192;-80
2023/07/21 10:23:53;;;;;;;2.60;2.35;;;;;;;;;;5131996;27;20238;-80
2023/07/21 10:26:21;;;;;;;3.22;2.58;;;;;;;;;;5131755;27;20265;-80
2023/07/21 10:28:51;;;;;;;4.05;2.40;;;;;;;;;;5126786;27;20224;-81
2023/07/21 10:31:38;;;;;;;3.50;2.70;;;;;;;;;;5126528;27;20229;-81
2023/07/21 10:34:08;;;;;;;3.22;2.80;;;;;;;;;;5123600;28;20254;-80
2023/07/21 10:36:42;;;;;;;6.07;3.00;;;;;;;;;;5130541;28;20284;-80
2023/07/21 10:39:10;;;;;;;5.43;2.67;;;;;;;;;;5131404;28;20295;-81
2023/07/21 10:41:38;;;;;;;4.00;2.83;;;;;;;;;;5127205;28;20200;-81
2023/07/21 10:44:07;;;;;;;3.92;2.92;;;;;;;;;;5112358;28;20206;-81
2023/07/21 10:46:37;;;;;;;4.47;2.85;;;;;;;;;;5111431;28;20197;-80
2023/07/21 10:49:04;;;;;;;5.55;2.97;;;;;;;;;;5111863;28;20286;-82
2023/07/21 10:51:32;;;;;;;3.75;3.15;;;;;;;;;;5131527;27;20224;-80
2023/07/21 10:53:59;;;;;;;3.78;2.70;;;;;;;;;;5147839;27;20194;-81
2023/07/21 10:56:27;;;;;;;4.18;2.80;;;;;;;;;;5111394;28;20236;-80
2023/07/21 10:58:54;;;;;;;8.23;2.88;;;;;;;;;;5112039;28;20205;-80
2023/07/21 11:01:22;;;;;;;3.10;2.40;;;;;;;;;;5116387;27;20288;-81
2023/07/21 11:03:50;;;;;;;3.85;2.40;;;;;;;;;;5133253;27;20212;-81
2023/07/21 11:06:17;;;;;;;3.40;2.83;;;;;;;;;;5131352;28;20197;-81
2023/07/21 11:08:45;;;;;;;3.30;2.60;;;;;;;;;;5109995;28;20201;-80
2023/07/21 11:11:12;;;;;;;5.07;2.58;;;;;;;;;;5116550;27;20304;-81
2023/07/21 11:13:40;;;;;;;5.05;2.75;;;;;;;;;;5119534;27;20197;-81
2023/07/21 11:16:07;;;;;;;3.78;2.50;;;;;;;;;;5130386;27;20228;-80
2023/07/21 11:18:34;;;;;;;4.75;2.50;;;;;;;;;;5125871;28;20280;-81
2023/07/21 11:21:03;;;;;;;3.08;2.38;;;;;;;;;;5130217;28;20205;-80
2023/07/21 11:23:33;;;;;;;3.72;2.45;;;;;;;;;;5131548;28;20292;-80
2023/07/21 11:26:01;;;;;;;5.18;2.70;;;;;;;;;;5131219;28;20255;-80
2023/07/21 11:28:28;;;;;;;3.90;2.42;;;;;;;;;;5131903;27;20212;-80
2023/07/21 11:30:55;;;;;;;3.13;2.35;;;;;;;;;;5133722;27;20310;-80
2023/07/21 11:33:23;;;;;;;10.35;3.00;;;;;;;;;;5135168;27;20710;-81
2023/07/21 11:35:51;;;;;;;4.90;2.97;;;;;;;;;;5135631;27;20220;-80
2023/07/21 11:38:20;;;;;;;3.47;2.38;;;;;;;;;;5135671;27;20250;-81
2023/07/21 11:40:48;;;;;;;3.90;2.90;;;;;;;;;;5135207;27;20189;-81
2023/07/21 11:43:15;;;;;;;2.80;2.60;;;;;;;;;;5135181;27;20197;-80
2023/07/21 11:45:43;;;;;;;3.00;2.40;;;;;;;;;;5134849;27;20232;-81
2023/07/21 11:48:15;;;;;;;3.20;2.40;;;;;;;;;;5134853;27;20197;-80
2023/07/21 11:50:50;;;;;;;3.95;2.63;;;;;;;;;;5134983;27;20224;-80
2023/07/21 11:53:18;;;;;;;4.97;2.63;;;;;;;;;;5134681;27;20204;-81
2023/07/21 11:55:46;;;;;;;3.13;2.70;;;;;;;;;;5134555;27;20669;-81
2023/07/21 11:58:13;;;;;;;4.05;2.42;;;;;;;;;;5134807;27;20280;-80
2023/07/21 12:00:42;;;;;;;4.68;2.70;;;;;;;;;;5134241;27;20291;-81
2023/07/21 12:03:11;;;;;;;3.10;2.60;;;;;;;;;;5135000;27;20284;-81
2023/07/21 12:05:38;;;;;;;7.45;3.38;;;;;;;;;;5134562;27;20274;-80
2023/07/21 12:08:06;;;;;;;6.20;3.00;;;;;;;;;;5134862;27;20229;-81
2023/07/21 12:10:33;;;;;;;6.15;2.67;;;;;;;;;;5134584;27;20217;-81
2023/07/21 12:13:03;;;;;;;3.78;2.20;;;;;;;;;;5134365;27;20304;-81
2023/07/21 12:15:31;;;;;;;4.63;2.70;;;;;;;;;;5134561;27;20197;-81
2023/07/21 12:17:59;;;;;;;3.97;2.83;;;;;;;;;;5133479;27;20906;-82
2023/07/21 12:20:27;;;;;;;3.53;2.60;;;;;;;;;;5135311;27;20557;-81
2023/07/21 12:22:54;;;;;;;4.20;2.83;;;;;;;;;;5131938;27;20575;-81
2023/07/21 12:25:21;;;;;;;3.03;2.67;;;;;;;;;;5135161;27;20279;-81
2023/07/21 12:27:49;;;;;;;4.88;2.97;;;;;;;;;;5133275;27;20673;-82
2023/07/21 12:30:17;;;;;;;4.03;3.00;;;;;;;;;;5133740;27;20196;-80
2023/07/21 12:32:44;;;;;;;4.60;2.80;;;;;;;;;;5134255;27;20280;-81
2023/07/21 12:35:12;;;;;;;8.15;2.90;;;;;;;;;;5134636;27;20280;-80
2023/07/21 12:37:39;;;;;;;3.60;2.75;;;;;;;;;;5134227;27;20276;-81
2023/07/21 12:40:11;;;;;;;3.00;2.60;;;;;;;;;;5133875;27;20197;-81
2023/07/21 12:42:39;;;;;;;3.63;2.70;;;;;;;;;;5132698;27;20205;-80
2023/07/21 12:45:07;;;;;;;3.15;2.67;;;;;;;;;;5134027;27;20288;-81
2023/07/21 12:47:35;;;;;;;5.38;3.17;;;;;;;;;;5134091;27;20220;-80
2023/07/21 12:50:02;;;;;;;3.83;3.22;;;;;;;;;;5133656;27;20209;-81
2023/07/21 12:52:30;;;;;;;3.75;3.10;;;;;;;;;;5133815;27;20240;-81
2023/07/21 12:54:57;;;;;;;4.05;2.75;;;;;;;;;;5133927;27;20249;-81
2023/07/21 12:57:24;;;;;;;3.65;2.85;;;;;;;;;;5133394;27;20197;-81
2023/07/21 12:59:51;;;;;;;3.60;2.88;;;;;;;;;;5133803;27;20221;-81
2023/07/21 13:02:18;;;;;;;5.25;3.17;;;;;;;;;;5133298;27;20291;-81
2023/07/21 13:04:48;;;;;;;4.63;3.13;;;;;;;;;;5133470;27;20269;-81
2023/07/21 13:07:15;;;;;;;4.78;2.60;;;;;;;;;;5133570;27;20565;-81
2023/07/21 13:09:42;;;;;;;4.15;2.70;;;;;;;;;;5133607;27;20693;-81
2023/07/21 13:12:10;;;;;;;4.28;2.50;;;;;;;;;;5132980;27;20308;-81
2023/07/21 13:14:37;;;;;;;3.40;2.60;;;;;;;;;;5133862;27;20246;-80
2023/07/21 13:17:05;;;;;;;3.83;2.88;;;;;;;;;;5133272;27;20204;-81
2023/07/21 13:19:32;;;;;;;4.15;2.65;;;;;;;;;;5133247;27;20196;-81
2023/07/21 13:22:01;;;;;;;5.40;3.05;;;;;;;;;;5133338;27;20242;-81
2023/07/21 13:24:29;;;;;;;5.10;2.75;;;;;;;;;;5133390;27;20227;-80
2023/07/21 13:26:56;;;;;;;3.10;2.80;;;;;;;;;;5132783;27;20197;-81
2023/07/21 13:29:23;;;;;;;4.95;2.78;;;;;;;;;;5133542;27;20215;-81
2023/07/21 13:31:51;;;;;;;4.45;2.50;;;;;;;;;;5132593;27;20228;-81
2023/07/21 13:34:18;;;;;;;3.08;2.58;;;;;;;;;;5133042;27;20292;-81
2023/07/21 13:36:46;;;;;;;3.35;2.53;;;;;;;;;;5132790;27;20196;-81
2023/07/21 13:39:16;;;;;;;3.90;2.80;;;;;;;;;;5132835;27;20266;-81
2023/07/21 13:41:44;;;;;;;5.00;3.10;;;;;;;;;;5130895;27;20986;-81
2023/07/21 13:44:11;;;;;;;4.57;3.03;;;;;;;;;;5131440;27;20200;-80
2023/07/21 13:46:38;;;;;;;4.85;2.67;;;;;;;;;;5130711;27;20192;-81
2023/07/21 13:49:05;;;;;;;5.07;2.60;;;;;;;;;;5130293;27;20297;-82
2023/07/21 13:51:33;;;;;;;3.35;2.92;;;;;;;;;;5130713;27;20236;-81
2023/07/21 13:54:00;;;;;;;5.00;2.88;;;;;;;;;;5130475;27;20223;-81
2023/07/21 13:56:28;;;;;;;4.68;2.78;;;;;;;;;;5130931;27;20221;-81
2023/07/21 13:58:55;;;;;;;3.65;2.20;;;;;;;;;;5131268;27;20284;-81
2023/07/21 14:01:23;;;;;;;6.53;2.70;;;;;;;;;;5131929;27;20717;-82
2023/07/21 14:03:51;;;;;;;6.45;3.00;;;;;;;;;;5132073;27;20197;-81
2023/07/21 14:06:18;;;;;;;3.20;2.85;;;;;;;;;;5132674;27;20554;-81
2023/07/21 14:08:45;;;;;;;5.60;3.50;;;;;;;;;;5132631;27;20661;-82
2023/07/21 14:11:13;;;;;;;3.88;3.22;;;;;;;;;;5131961;27;20271;-81
2023/07/21 14:13:41;;;;;;;4.40;3.35;;;;;;;;;;5131602;27;20722;-81
2023/07/21 14:16:09;;;;;;;3.97;3.20;;;;;;;;;;5132067;27;20197;-81
2023/07/21 14:18:37;;;;;;;4.70;3.30;;;;;;;;;;5132275;27;20193;-81
2023/07/21 14:21:04;;;;;;;3.30;3.00;;;;;;;;;;5132320;27;20189;-81
2023/07/21 14:23:32;;;;;;;3.60;3.17;;;;;;;;;;5132149;27;20197;-81
2023/07/21 14:25:59;;;;;;;3.63;3.28;;;;;;;;;;5131616;27;20228;-81
2023/07/21 14:28:27;;;;;;;3.33;3.03;;;;;;;;;;5131987;27;20197;-81
2023/07/21 14:30:56;;;;;;;5.18;3.58;;;;;;;;;;5132444;27;20568;-80
2023/07/21 14:33:23;;;;;;;4.22;3.60;;;;;;;;;;5131929;27;20228;-81
2023/07/21 14:35:51;;;;;;;4.15;3.33;;;;;;;;;;5132221;27;20266;-82
2023/07/21 14:38:19;;;;;;;4.25;3.42;;;;;;;;;;5131405;28;20200;-81
2023/07/21 14:40:47;;;;;;;4.32;3.67;;;;;;;;;;5132263;28;20216;-82
2023/07/21 14:43:14;;;;;;;5.95;3.25;;;;;;;;;;5132273;28;20200;-81
2023/07/21 14:45:41;;;;;;;4.60;3.55;;;;;;;;;;5131470;27;20298;-81